createdAt,value
2022-10-30T00:00:49.656Z,17.23
2022-10-30T00:04:54.064Z,14.95
2022-10-30T00:08:57.131Z,15.63
2022-10-30T00:13:00.166Z,14.80
2022-10-30T00:17:03.191Z,17.27
2022-10-30T00:21:09.806Z,15.85
2022-10-30T00:25:13.105Z,14.07
2022-10-30T00:29:16.453Z,16.92
2022-10-30T00:33:19.497Z,15.82
2022-10-30T00:37:25.402Z,15.13
2022-10-30T00:41:28.471Z,12.10
2022-10-30T00:45:31.737Z,11.20
2022-10-30T00:49:38.303Z,13.45
2022-10-30T00:53:44.217Z,12.43
2022-10-30T00:57:48.513Z,14.60
2022-10-30T01:01:52.820Z,13.27
2022-10-30T01:05:59.851Z,13.25
2022-10-30T01:10:04.981Z,11.75
2022-10-30T01:14:11.419Z,11.70
2022-10-30T01:18:33.432Z,11.43
2022-10-30T01:22:51.403Z,13.95
2022-10-30T01:27:05.619Z,13.48
2022-10-30T01:31:22.800Z,13.25
2022-10-30T01:35:33.552Z,15.65
2022-10-30T01:39:40.772Z,13.68
2022-10-30T01:43:49.223Z,13.82
2022-10-30T01:48:11.866Z,16.00
2022-10-30T01:52:33.237Z,16.25
2022-10-30T01:56:41.106Z,13.73
2022-10-30T02:00:48.765Z,13.98
2022-10-30T02:04:52.705Z,15.00
2022-10-30T02:08:57.061Z,13.02
2022-10-30T02:13:00.238Z,12.23
2022-10-30T02:17:07.762Z,14.85
2022-10-30T02:21:12.774Z,13.57
2022-10-30T02:25:16.396Z,13.55
2022-10-30T02:29:20.808Z,15.10
2022-10-30T02:33:24.385Z,11.63
2022-10-30T02:37:29.055Z,12.13
2022-10-30T02:41:32.073Z,14.10
2022-10-30T02:45:35.117Z,12.48
2022-10-30T02:49:38.708Z,12.48
2022-10-30T02:53:43.209Z,13.73
2022-10-30T02:57:47.058Z,12.23
2022-10-30T03:01:50.210Z,11.32
2022-10-30T03:05:53.332Z,11.00
2022-10-30T03:09:57.722Z,10.45
2022-10-30T03:14:00.775Z,13.73
2022-10-30T03:18:03.795Z,12.32
2022-10-30T03:22:06.801Z,13.32
2022-10-30T03:26:11.810Z,11.48
2022-10-30T03:30:35.069Z,11.65
2022-10-30T03:34:39.910Z,12.32
2022-10-30T03:38:44.269Z,8.90
2022-10-30T03:42:52.614Z,9.85
2022-10-30T03:46:55.683Z,9.98
2022-10-30T03:51:03.705Z,9.32
2022-10-30T03:55:08.142Z,10.23
2022-10-30T03:59:15.766Z,13.18
2022-10-30T04:03:26.284Z,10.02
2022-10-30T04:07:30.136Z,11.00
2022-10-30T04:11:33.217Z,9.63
2022-10-30T04:15:38.446Z,12.00
2022-10-30T04:19:41.489Z,7.45
2022-10-30T04:23:46.054Z,10.48
2022-10-30T04:27:49.587Z,8.45
2022-10-30T04:31:55.401Z,7.50
2022-10-30T04:35:59.190Z,9.65
2022-10-30T04:40:02.399Z,11.00
2022-10-30T04:44:12.673Z,11.18
2022-10-30T04:48:19.597Z,10.63
2022-10-30T04:52:23.964Z,9.93
2022-10-30T04:56:27.190Z,12.00
2022-10-30T05:00:32.985Z,10.88
2022-10-30T05:04:47.222Z,10.77
2022-10-30T05:08:50.544Z,12.23
2022-10-30T05:13:07.143Z,11.27
2022-10-30T05:17:10.346Z,11.45
2022-10-30T05:21:15.488Z,11.43
2022-10-30T05:25:18.501Z,10.05
2022-10-30T05:29:21.560Z,11.40
2022-10-30T05:33:24.592Z,12.48
2022-10-30T05:37:29.058Z,11.32
2022-10-30T05:41:32.438Z,10.73
2022-10-30T05:45:35.481Z,13.43
2022-10-30T05:49:39.757Z,11.60
2022-10-30T05:53:52.584Z,12.20
2022-10-30T05:58:02.842Z,10.65
2022-10-30T06:02:07.381Z,11.65
2022-10-30T06:06:11.225Z,11.57
2022-10-30T06:10:16.091Z,10.25
2022-10-30T06:14:32.755Z,8.70
2022-10-30T06:18:35.965Z,11.52
2022-10-30T06:22:55.658Z,11.13
2022-10-30T06:27:02.858Z,8.45
2022-10-30T06:31:06.361Z,11.63
2022-10-30T06:35:10.502Z,9.45
2022-10-30T06:39:13.880Z,10.57
2022-10-30T06:43:47.279Z,9.82
2022-10-30T06:47:58.202Z,9.90
2022-10-30T06:52:02.492Z,10.98
2022-10-30T06:56:06.771Z,13.77
2022-10-30T07:00:40.234Z,12.18
2022-10-30T07:05:09.746Z,11.02
2022-10-30T07:09:13.146Z,10.57
2022-10-30T07:13:16.804Z,11.85
2022-10-30T07:17:26.689Z,8.77
2022-10-30T07:21:34.352Z,7.70
2022-10-30T07:25:41.240Z,7.00
2022-10-30T07:29:52.212Z,7.38
2022-10-30T07:33:59.483Z,6.22
2022-10-30T07:38:21.038Z,5.53
2022-10-30T07:42:31.313Z,5.50
2022-10-30T07:46:49.029Z,6.38
2022-10-30T07:51:22.483Z,6.65
2022-10-30T07:55:25.968Z,7.78
2022-10-30T08:04:15.463Z,7.30
2022-10-30T08:08:20.174Z,6.45
2022-10-30T08:12:29.981Z,7.90
2022-10-30T08:16:33.071Z,8.57
2022-10-30T08:20:36.181Z,7.55
2022-10-30T08:24:40.697Z,9.13
2022-10-30T08:28:43.784Z,13.15
2022-10-30T08:32:48.081Z,9.88
2022-10-30T08:37:19.926Z,10.18
2022-10-30T08:41:24.983Z,11.77
2022-10-30T08:45:31.156Z,11.57
2022-10-30T08:49:43.294Z,13.20
2022-10-30T08:53:49.509Z,15.18
2022-10-30T08:57:54.561Z,14.15
2022-10-30T09:01:58.281Z,15.57
2022-10-30T09:06:20.076Z,14.38
2022-10-30T09:10:49.121Z,16.83
2022-10-30T09:14:53.704Z,17.67
2022-10-30T09:18:56.769Z,17.63
2022-10-30T09:23:00.504Z,17.70
2022-10-30T09:27:04.198Z,18.08
2022-10-30T09:31:13.993Z,16.95
2022-10-30T09:35:17.339Z,15.00
2022-10-30T09:39:20.977Z,16.15
2022-10-30T09:43:39.215Z,19.90
2022-10-30T09:47:53.496Z,19.10
2022-10-30T09:52:09.510Z,21.55
2022-10-30T09:56:25.007Z,16.90
2022-10-30T10:00:34.637Z,19.40
2022-10-30T10:04:49.737Z,20.75
2022-10-30T10:09:18.474Z,20.05
2022-10-30T10:14:00.213Z,19.02
2022-10-30T10:18:06.169Z,22.05
2022-10-30T10:22:21.546Z,23.73
2022-10-30T10:26:45.403Z,21.90
2022-10-30T10:30:56.653Z,18.80
2022-10-30T10:35:20.451Z,20.38
2022-10-30T10:39:41.084Z,25.50
2022-10-30T10:44:00.098Z,22.35
2022-10-30T10:48:38.819Z,20.92
2022-10-30T10:52:48.858Z,23.60
2022-10-30T10:56:53.712Z,22.00
2022-10-30T11:00:58.902Z,21.20
2022-10-30T11:05:07.651Z,22.60
2022-10-30T11:09:17.377Z,27.05
2022-10-30T11:13:21.746Z,26.55
2022-10-30T11:17:27.886Z,27.52
2022-10-30T11:21:35.777Z,25.98
2022-10-30T11:25:38.930Z,26.05
2022-10-30T11:29:50.571Z,26.00
2022-10-30T11:33:53.620Z,27.83
2022-10-30T11:38:20.014Z,24.88
2022-10-30T11:42:23.097Z,31.73
2022-10-30T11:46:27.526Z,29.25
2022-10-30T11:50:32.852Z,26.20
2022-10-30T11:54:40.344Z,27.63
2022-10-30T11:58:47.254Z,28.35
2022-10-30T12:02:53.929Z,29.45
2022-10-30T12:07:10.625Z,28.35
2022-10-30T12:11:13.819Z,27.73
2022-10-30T12:15:22.607Z,26.55
2022-10-30T12:19:27.283Z,29.65
2022-10-30T12:23:30.856Z,26.98
2022-10-30T12:27:39.019Z,28.95
2022-10-30T12:31:47.903Z,29.80
2022-10-30T12:35:57.243Z,32.20
2022-10-30T12:40:02.856Z,29.75
2022-10-30T12:44:14.762Z,33.78
2022-10-30T12:48:27.677Z,32.30
2022-10-30T12:52:37.509Z,28.88
2022-10-30T12:56:45.040Z,31.17
2022-10-30T13:00:55.929Z,29.95
2022-10-30T13:05:03.711Z,31.83
2022-10-30T13:09:16.424Z,28.02
2022-10-30T13:13:23.112Z,26.90
2022-10-30T13:17:26.177Z,25.48
2022-10-30T13:21:40.347Z,25.30
2022-10-30T13:26:00.425Z,21.35
2022-10-30T13:30:07.083Z,27.33
2022-10-30T13:34:27.371Z,26.88
2022-10-30T13:38:41.474Z,24.35
2022-10-30T13:42:58.045Z,26.60
2022-10-30T13:47:13.997Z,25.15
2022-10-30T13:51:35.163Z,20.63
2022-10-30T13:55:41.298Z,18.52
2022-10-30T13:59:58.021Z,18.13
2022-10-30T14:04:07.074Z,17.60
2022-10-30T14:08:19.804Z,22.90
2022-10-30T14:12:45.496Z,19.27
2022-10-30T14:17:09.982Z,19.13
2022-10-30T14:21:52.803Z,18.92
2022-10-30T14:26:21.947Z,17.42
2022-10-30T14:30:29.018Z,16.02
2022-10-30T14:34:44.914Z,15.77
2022-10-30T14:39:03.072Z,16.60
2022-10-30T14:43:12.207Z,19.60
2022-10-30T14:47:48.913Z,18.55
2022-10-30T14:52:06.273Z,16.73
2022-10-30T14:56:20.899Z,19.60
2022-10-30T15:00:45.133Z,17.65
2022-10-30T15:05:05.465Z,19.23
2022-10-30T15:09:25.376Z,18.30
2022-10-30T15:13:28.504Z,18.50
2022-10-30T15:17:35.759Z,18.75
2022-10-30T15:21:44.573Z,17.38
2022-10-30T15:25:51.852Z,17.48
2022-10-30T15:29:57.934Z,18.08
2022-10-30T15:34:00.969Z,18.23
2022-10-30T15:38:06.612Z,16.67
2022-10-30T15:42:11.573Z,14.82
2022-10-30T15:46:16.398Z,15.95
2022-10-30T15:50:21.745Z,19.08
2022-10-30T15:54:26.368Z,22.10
2022-10-30T15:58:32.737Z,22.23
2022-10-30T16:02:36.834Z,18.55
2022-10-30T16:06:39.928Z,19.80
2022-10-30T16:10:45.287Z,18.50
2022-10-30T16:14:51.176Z,19.45
2022-10-30T16:18:55.708Z,18.98
2022-10-30T16:22:59.617Z,18.95
2022-10-30T16:27:04.549Z,20.05
2022-10-30T16:31:15.752Z,18.20
2022-10-30T16:35:20.418Z,20.80
2022-10-30T16:39:24.055Z,19.23
2022-10-30T16:43:29.940Z,20.98
2022-10-30T16:47:38.377Z,21.60
2022-10-30T16:51:42.011Z,18.40
2022-10-30T16:55:45.422Z,18.10
2022-10-30T16:59:52.057Z,25.33
2022-10-30T17:03:58.368Z,21.20
2022-10-30T17:08:04.235Z,22.13
2022-10-30T17:12:16.428Z,19.42
2022-10-30T17:16:25.268Z,21.77
2022-10-30T17:20:31.375Z,18.90
2022-10-30T17:24:36.919Z,24.20
2022-10-30T17:28:40.615Z,22.13
2022-10-30T17:32:45.756Z,20.55
2022-10-30T17:36:50.526Z,20.73
2022-10-30T17:40:53.567Z,20.38
2022-10-30T17:44:56.575Z,18.83
2022-10-30T17:49:00.096Z,18.48
2022-10-30T17:53:04.543Z,20.92
2022-10-30T17:57:07.755Z,20.52
2022-10-30T18:01:22.600Z,17.33
2022-10-30T18:05:35.144Z,17.33
2022-10-30T18:09:40.646Z,17.83
2022-10-30T18:13:44.164Z,17.35
2022-10-30T18:17:47.153Z,16.05
2022-10-30T18:21:51.856Z,15.82
2022-10-30T18:25:56.289Z,17.65
2022-10-30T18:29:59.309Z,19.95
2022-10-30T18:34:02.348Z,16.20
2022-10-30T18:38:06.426Z,16.83
2022-10-30T18:42:10.896Z,16.23
2022-10-30T18:46:14.375Z,15.25
2022-10-30T18:50:18.537Z,17.58
2022-10-30T18:54:21.555Z,16.75
2022-10-30T18:58:25.955Z,15.93
2022-10-30T19:02:29.120Z,18.17
2022-10-30T19:06:34.477Z,17.38
2022-10-30T19:10:41.019Z,18.42
2022-10-30T19:14:45.519Z,17.80
2022-10-30T19:18:49.520Z,17.17
2022-10-30T19:22:52.689Z,16.20
2022-10-30T19:26:55.872Z,20.25
2022-10-30T19:31:00.494Z,20.98
2022-10-30T19:35:05.220Z,18.30
2022-10-30T19:39:13.639Z,16.88
2022-10-30T19:43:16.838Z,19.95
2022-10-30T19:47:21.482Z,19.10
2022-10-30T19:51:24.845Z,16.00
2022-10-30T19:55:29.810Z,17.98
2022-10-30T19:59:32.949Z,18.50
2022-10-30T20:03:37.513Z,23.20
2022-10-30T20:07:40.916Z,16.38
2022-10-30T20:11:44.020Z,21.13
2022-10-30T20:15:47.324Z,21.33
2022-10-30T20:19:51.838Z,15.55
2022-10-30T20:23:55.123Z,19.10
2022-10-30T20:28:04.105Z,18.05
2022-10-30T20:32:10.725Z,19.38
2022-10-30T20:36:15.705Z,20.58
2022-10-30T20:40:19.023Z,17.45
2022-10-30T20:44:22.308Z,16.45
2022-10-30T20:48:25.750Z,17.08
2022-10-30T20:52:30.173Z,17.65
2022-10-30T20:56:33.248Z,19.35
2022-10-30T21:00:37.182Z,14.63
2022-10-30T21:04:40.372Z,17.17
2022-10-30T21:08:45.018Z,16.15
2022-10-30T21:12:48.167Z,16.55
2022-10-30T21:16:51.310Z,17.00
2022-10-30T21:20:54.648Z,16.42
2022-10-30T21:24:59.079Z,15.18
2022-10-30T21:29:02.429Z,15.07
2022-10-30T21:33:05.593Z,13.15
2022-10-30T21:37:08.650Z,15.40
2022-10-30T21:41:15.011Z,16.70
2022-10-30T21:45:18.266Z,15.57
2022-10-30T21:49:21.326Z,14.50
2022-10-30T21:53:24.548Z,15.05
2022-10-30T21:57:29.597Z,13.65
2022-10-30T22:01:34.045Z,14.68
2022-10-30T22:05:37.206Z,16.67
2022-10-30T22:09:40.496Z,13.60
2022-10-30T22:13:44.970Z,14.50
2022-10-30T22:17:47.985Z,15.32
2022-10-30T22:21:51.005Z,14.20
2022-10-30T22:25:57.568Z,14.38
2022-10-30T22:30:02.056Z,13.02
2022-10-30T22:34:05.073Z,14.20
2022-10-30T22:38:08.110Z,12.43
2022-10-30T22:42:11.585Z,12.88
2022-10-30T22:46:17.093Z,14.82
2022-10-30T22:50:20.374Z,13.52
2022-10-30T22:54:23.419Z,11.80
2022-10-30T22:58:29.494Z,17.23
2022-10-30T23:02:34.841Z,15.25
2022-10-30T23:06:37.864Z,15.13
2022-10-30T23:10:40.906Z,12.35
2022-10-30T23:14:43.921Z,14.73
2022-10-30T23:18:49.441Z,16.48
2022-10-30T23:22:52.751Z,13.00
2022-10-30T23:26:55.763Z,15.52
2022-10-30T23:30:58.988Z,13.27
2022-10-30T23:35:03.519Z,14.05
2022-10-30T23:39:08.556Z,13.23
2022-10-30T23:43:11.697Z,13.93
2022-10-30T23:47:14.715Z,17.67
2022-10-30T23:51:19.858Z,15.30
2022-10-30T23:55:22.866Z,15.20
2022-10-30T23:59:26.213Z,15.95
